createdAt,value
2023-10-29T00:01:28.577Z,7.80
2023-10-29T00:03:58.290Z,6.47
2023-10-29T00:06:25.188Z,5.97
2023-10-29T00:08:51.978Z,7.57
2023-10-29T00:11:18.869Z,6.78
2023-10-29T00:13:45.594Z,6.45
2023-10-29T00:16:15.189Z,6.35
2023-10-29T00:18:42.254Z,7.17
2023-10-29T00:21:08.935Z,6.90
2023-10-29T00:23:35.765Z,8.15
2023-10-29T00:26:02.495Z,5.80
2023-10-29T00:28:29.268Z,5.85
2023-10-29T00:30:56.370Z,6.53
2023-10-29T00:33:24.019Z,6.07
2023-10-29T00:35:51.104Z,8.45
2023-10-29T00:38:17.850Z,6.00
2023-10-29T00:40:44.589Z,8.93
2023-10-29T00:43:15.368Z,7.23
2023-10-29T00:45:43.129Z,8.57
2023-10-29T00:48:11.555Z,7.75
2023-10-29T00:50:38.561Z,9.05
2023-10-29T00:53:05.358Z,8.80
2023-10-29T00:55:32.160Z,9.97
2023-10-29T00:57:58.942Z,7.50
2023-10-29T01:00:25.622Z,7.50
2023-10-29T01:02:52.835Z,7.63
2023-10-29T01:05:19.627Z,7.55
2023-10-29T01:07:46.297Z,7.60
2023-10-29T01:10:12.989Z,7.72
2023-10-29T01:12:39.684Z,7.88
2023-10-29T01:15:06.825Z,8.57
2023-10-29T01:17:33.577Z,5.57
2023-10-29T01:20:00.361Z,7.20
2023-10-29T01:22:27.253Z,7.15
2023-10-29T01:24:55.204Z,7.78
2023-10-29T01:27:22.841Z,8.77
2023-10-29T01:29:49.710Z,7.78
2023-10-29T01:32:17.088Z,7.03
2023-10-29T01:34:43.820Z,6.32
2023-10-29T01:37:10.559Z,5.22
2023-10-29T01:39:37.218Z,8.52
2023-10-29T01:42:04.112Z,6.72
2023-10-29T01:44:30.907Z,5.83
2023-10-29T01:46:57.659Z,6.22
2023-10-29T01:49:24.370Z,6.28
2023-10-29T01:51:51.077Z,5.80
2023-10-29T01:54:17.790Z,6.18
2023-10-29T01:56:44.596Z,5.63
2023-10-29T01:59:14.206Z,6.20
2023-10-29T02:01:41.343Z,6.40
2023-10-29T02:04:14.376Z,7.40
2023-10-29T02:06:41.259Z,5.60
2023-10-29T02:09:10.864Z,6.50
2023-10-29T02:11:40.811Z,7.40
2023-10-29T02:14:07.780Z,6.50
2023-10-29T02:16:34.929Z,8.73
2023-10-29T02:19:01.648Z,6.70
2023-10-29T02:21:28.497Z,6.93
2023-10-29T02:23:56.482Z,6.65
2023-10-29T02:26:23.901Z,12.63
2023-10-29T02:28:50.765Z,10.00
2023-10-29T02:31:18.333Z,8.57
2023-10-29T02:33:45.068Z,10.57
2023-10-29T02:36:12.084Z,10.13
2023-10-29T02:38:39.713Z,10.18
2023-10-29T02:41:06.517Z,13.07
2023-10-29T02:43:33.699Z,10.05
2023-10-29T02:46:01.066Z,9.90
2023-10-29T02:48:28.166Z,11.82
2023-10-29T02:50:55.342Z,13.48
2023-10-29T02:53:22.210Z,12.50
2023-10-29T02:55:49.615Z,13.27
2023-10-29T02:58:16.328Z,14.00
2023-10-29T03:00:43.077Z,11.35
2023-10-29T03:03:09.901Z,12.15
2023-10-29T03:05:50.284Z,12.70
2023-10-29T03:08:23.176Z,11.10
2023-10-29T03:10:53.015Z,12.67
2023-10-29T03:13:19.791Z,9.90
2023-10-29T03:15:46.644Z,9.68
2023-10-29T03:18:14.707Z,11.20
2023-10-29T03:20:42.210Z,10.90
2023-10-29T03:23:09.141Z,9.60
2023-10-29T03:25:35.915Z,10.82
2023-10-29T03:28:02.753Z,10.82
2023-10-29T03:30:29.465Z,11.25
2023-10-29T03:32:56.253Z,10.35
2023-10-29T03:35:22.978Z,11.33
2023-10-29T03:37:49.705Z,14.32
2023-10-29T03:40:16.432Z,11.10
2023-10-29T03:42:43.133Z,9.40
2023-10-29T03:45:10.166Z,12.35
2023-10-29T03:47:36.901Z,12.07
2023-10-29T03:50:03.801Z,12.05
2023-10-29T03:52:30.652Z,9.68
2023-10-29T03:54:57.348Z,12.50
2023-10-29T03:57:24.044Z,8.93
2023-10-29T03:59:52.335Z,11.00
2023-10-29T04:02:19.094Z,11.93
2023-10-29T04:04:53.661Z,11.07
2023-10-29T04:07:28.765Z,13.18
2023-10-29T04:09:55.808Z,11.82
2023-10-29T04:12:22.704Z,11.33
2023-10-29T04:14:49.666Z,10.38
2023-10-29T04:17:16.572Z,9.75
2023-10-29T04:19:43.642Z,10.57
2023-10-29T04:22:10.546Z,12.68
2023-10-29T04:24:37.215Z,9.97
2023-10-29T04:27:03.949Z,10.82
2023-10-29T04:29:30.656Z,11.48
2023-10-29T04:31:57.444Z,12.98
2023-10-29T04:34:24.138Z,11.80
2023-10-29T04:36:52.994Z,11.73
2023-10-29T04:39:20.668Z,11.27
2023-10-29T04:41:48.006Z,10.73
2023-10-29T04:44:15.292Z,12.88
2023-10-29T04:46:42.090Z,12.82
2023-10-29T04:49:08.853Z,14.50
2023-10-29T04:51:35.621Z,11.88
2023-10-29T04:54:02.576Z,19.80
2023-10-29T04:56:29.378Z,16.35
2023-10-29T04:58:56.093Z,13.73
2023-10-29T05:01:22.815Z,16.00
2023-10-29T05:03:49.773Z,16.58
2023-10-29T05:06:22.994Z,19.35
2023-10-29T05:08:50.789Z,18.33
2023-10-29T05:11:17.859Z,21.55
2023-10-29T05:13:44.690Z,15.20
2023-10-29T05:16:12.284Z,16.50
2023-10-29T05:18:39.033Z,13.68
2023-10-29T05:21:05.834Z,21.33
2023-10-29T05:23:32.574Z,19.15
2023-10-29T05:25:59.337Z,17.83
2023-10-29T05:28:26.550Z,19.25
2023-10-29T05:30:53.749Z,16.08
2023-10-29T05:33:21.902Z,20.35
2023-10-29T05:35:49.054Z,15.27
2023-10-29T05:38:16.065Z,16.73
2023-10-29T05:40:43.425Z,19.42
2023-10-29T05:43:10.229Z,15.25
2023-10-29T05:45:36.978Z,16.23
2023-10-29T05:48:03.919Z,24.25
2023-10-29T05:50:30.828Z,19.00
2023-10-29T05:52:57.622Z,17.50
2023-10-29T05:55:24.477Z,20.15
2023-10-29T05:57:51.293Z,16.95
2023-10-29T06:00:18.607Z,17.85
2023-10-29T06:02:45.521Z,19.80
2023-10-29T06:05:12.308Z,15.23
2023-10-29T06:07:44.249Z,19.42
2023-10-29T06:10:17.363Z,12.07
2023-10-29T06:12:44.103Z,11.13
2023-10-29T06:15:13.929Z,12.30
2023-10-29T06:17:40.791Z,17.00
2023-10-29T06:20:12.692Z,17.58
2023-10-29T06:22:39.556Z,20.38
2023-10-29T06:25:06.756Z,15.07
2023-10-29T06:27:33.527Z,17.90
2023-10-29T06:30:01.187Z,15.30
2023-10-29T06:32:28.149Z,15.98
2023-10-29T06:34:54.832Z,17.02
2023-10-29T06:37:23.438Z,12.63
2023-10-29T06:39:50.223Z,16.10
2023-10-29T06:42:17.008Z,16.88
2023-10-29T06:44:43.709Z,19.15
2023-10-29T06:47:10.372Z,22.27
2023-10-29T06:49:37.120Z,19.70
2023-10-29T06:52:03.927Z,16.70
2023-10-29T06:54:30.961Z,21.02
2023-10-29T06:56:57.657Z,16.33
2023-10-29T06:59:25.001Z,14.38
2023-10-29T07:01:51.791Z,16.73
2023-10-29T07:04:18.725Z,22.43
2023-10-29T07:06:47.728Z,18.17
2023-10-29T07:09:16.936Z,19.02
2023-10-29T07:11:44.169Z,13.63
2023-10-29T07:14:11.070Z,12.13
2023-10-29T07:16:38.966Z,12.23
2023-10-29T07:19:05.732Z,13.88
2023-10-29T07:21:32.564Z,11.07
2023-10-29T07:23:59.270Z,10.43
2023-10-29T07:26:26.034Z,11.32
2023-10-29T07:28:52.890Z,11.43
2023-10-29T07:31:21.639Z,11.18
2023-10-29T07:33:48.663Z,11.75
2023-10-29T07:36:15.473Z,13.48
2023-10-29T07:38:42.417Z,12.10
2023-10-29T07:41:11.390Z,12.47
2023-10-29T07:43:38.043Z,11.95
2023-10-29T07:46:05.274Z,14.45
2023-10-29T07:48:32.108Z,10.77
2023-10-29T07:51:00.880Z,12.45
2023-10-29T07:53:32.018Z,13.67
2023-10-29T07:56:08.301Z,13.50
2023-10-29T07:58:35.008Z,13.10
2023-10-29T08:01:01.786Z,13.48
2023-10-29T08:03:28.693Z,14.27
2023-10-29T08:05:55.822Z,13.53
2023-10-29T08:08:22.549Z,12.65
2023-10-29T08:10:49.268Z,14.02
2023-10-29T08:13:16.042Z,12.77
2023-10-29T08:15:43.819Z,12.25
2023-10-29T08:18:10.943Z,11.53
2023-10-29T08:20:37.943Z,12.27
2023-10-29T08:23:04.709Z,11.07
2023-10-29T08:25:31.387Z,12.20
2023-10-29T08:27:58.162Z,13.38
2023-10-29T08:30:24.955Z,11.33
2023-10-29T08:32:51.710Z,10.30
2023-10-29T08:35:18.550Z,10.63
2023-10-29T08:37:46.670Z,11.23
2023-10-29T08:40:14.114Z,11.43
2023-10-29T08:42:40.822Z,9.70
2023-10-29T08:45:07.682Z,10.38
2023-10-29T08:47:34.583Z,9.35
2023-10-29T08:50:01.402Z,10.00
2023-10-29T08:52:28.149Z,10.02
2023-10-29T08:54:54.815Z,9.53
2023-10-29T08:57:22.640Z,9.20
2023-10-29T08:59:49.390Z,10.80
2023-10-29T09:02:16.366Z,8.90
2023-10-29T09:04:44.336Z,8.73
2023-10-29T09:07:11.074Z,12.03
2023-10-29T09:09:39.036Z,7.32
2023-10-29T09:12:05.935Z,11.00
2023-10-29T09:14:32.698Z,8.82
2023-10-29T09:16:59.431Z,8.02
2023-10-29T09:19:26.739Z,8.83
2023-10-29T09:21:53.517Z,10.43
2023-10-29T09:24:20.168Z,9.27
2023-10-29T09:26:46.888Z,7.65
2023-10-29T09:29:14.390Z,7.60
2023-10-29T09:31:41.185Z,10.13
2023-10-29T09:34:07.986Z,7.03
2023-10-29T09:36:34.670Z,8.20
2023-10-29T09:39:01.435Z,7.10
2023-10-29T09:41:28.121Z,6.97
2023-10-29T09:43:54.925Z,6.40
2023-10-29T09:46:24.990Z,8.98
2023-10-29T09:48:52.828Z,7.13
2023-10-29T09:51:20.498Z,7.10
2023-10-29T09:53:47.300Z,7.28
2023-10-29T09:56:14.226Z,7.33
2023-10-29T09:58:41.134Z,8.50
2023-10-29T10:01:09.193Z,6.70
2023-10-29T10:03:37.526Z,7.68
2023-10-29T10:06:04.959Z,6.72
2023-10-29T10:08:31.908Z,6.23
2023-10-29T10:10:59.848Z,6.40
2023-10-29T10:13:42.586Z,5.47
2023-10-29T10:16:11.518Z,6.40
2023-10-29T10:18:57.363Z,8.18
2023-10-29T10:21:25.657Z,6.10
2023-10-29T10:23:56.719Z,7.22
2023-10-29T10:26:35.221Z,6.82
2023-10-29T10:29:03.619Z,7.32
2023-10-29T10:31:32.646Z,7.03
2023-10-29T10:34:10.951Z,6.87
2023-10-29T10:36:37.857Z,5.50
2023-10-29T10:39:04.694Z,5.55
2023-10-29T10:41:44.860Z,3.88
2023-10-29T10:44:16.170Z,3.72
2023-10-29T10:46:50.177Z,3.93
2023-10-29T10:49:17.555Z,3.22
2023-10-29T10:51:44.478Z,3.80
2023-10-29T10:54:11.312Z,5.28
2023-10-29T10:56:38.752Z,3.72
2023-10-29T10:59:06.341Z,4.73
2023-10-29T11:01:39.031Z,4.95
2023-10-29T11:04:06.849Z,4.45
2023-10-29T11:06:33.733Z,4.88
2023-10-29T11:09:00.877Z,4.53
2023-10-29T11:11:31.120Z,4.33
2023-10-29T11:14:14.068Z,4.65
2023-10-29T11:16:55.121Z,7.88
2023-10-29T11:19:34.297Z,10.88
2023-10-29T11:22:14.169Z,6.82
2023-10-29T11:24:41.553Z,5.33
2023-10-29T11:27:43.017Z,3.85
2023-10-29T11:30:22.751Z,4.47
2023-10-29T11:33:07.924Z,5.28
2023-10-29T11:35:34.901Z,5.43
2023-10-29T11:38:02.293Z,6.43
2023-10-29T11:40:33.127Z,4.80
2023-10-29T11:43:20.153Z,4.60
2023-10-29T11:45:52.845Z,3.55
2023-10-29T11:48:21.738Z,4.57
2023-10-29T11:51:07.407Z,4.47
2023-10-29T11:53:34.296Z,5.00
2023-10-29T11:56:05.672Z,5.70
2023-10-29T11:58:32.580Z,3.97
2023-10-29T12:01:00.393Z,4.32
2023-10-29T12:03:27.408Z,4.97
2023-10-29T12:05:54.536Z,6.63
2023-10-29T12:08:22.064Z,3.08
2023-10-29T12:10:49.550Z,4.05
2023-10-29T12:13:19.656Z,4.65
2023-10-29T12:15:47.916Z,4.00
2023-10-29T12:18:24.246Z,3.78
2023-10-29T12:20:51.224Z,5.35
2023-10-29T12:23:18.824Z,3.65
2023-10-29T12:25:45.630Z,9.80
2023-10-29T12:28:13.899Z,7.07
2023-10-29T12:30:44.864Z,3.65
2023-10-29T12:33:33.107Z,4.20
2023-10-29T12:36:00.911Z,8.90
2023-10-29T12:38:27.649Z,5.38
2023-10-29T12:41:02.623Z,4.87
2023-10-29T12:43:38.973Z,4.97
2023-10-29T12:46:15.554Z,5.63
2023-10-29T12:49:00.799Z,4.00
2023-10-29T12:51:42.472Z,6.45
2023-10-29T12:54:21.498Z,4.13
2023-10-29T12:56:52.882Z,6.15
2023-10-29T12:59:21.365Z,4.47
2023-10-29T13:01:52.001Z,4.43
2023-10-29T13:04:19.387Z,4.18
2023-10-29T13:06:46.129Z,4.13
2023-10-29T13:09:19.560Z,5.75
2023-10-29T13:11:47.726Z,4.70
2023-10-29T13:14:14.478Z,3.80
2023-10-29T13:16:41.661Z,4.25
2023-10-29T13:19:08.471Z,3.03
2023-10-29T13:21:35.876Z,4.38
2023-10-29T13:24:02.617Z,5.15
2023-10-29T13:26:29.510Z,3.83
2023-10-29T13:28:56.801Z,3.78
2023-10-29T13:31:24.027Z,5.33
2023-10-29T13:33:50.898Z,3.40
2023-10-29T13:36:17.870Z,6.18
2023-10-29T13:38:44.747Z,3.70
2023-10-29T13:41:13.102Z,5.60
2023-10-29T13:43:39.972Z,4.10
2023-10-29T13:46:06.772Z,2.65
2023-10-29T13:48:33.892Z,5.20
2023-10-29T13:51:05.811Z,5.05
2023-10-29T13:53:33.133Z,4.00
2023-10-29T13:56:09.565Z,4.23
2023-10-29T13:58:36.647Z,3.92
2023-10-29T14:01:03.760Z,9.50
2023-10-29T14:03:30.989Z,4.63
2023-10-29T14:05:58.111Z,5.65
2023-10-29T14:08:25.071Z,4.90
2023-10-29T14:10:51.926Z,5.70
2023-10-29T14:13:18.847Z,5.57
2023-10-29T14:15:45.705Z,11.90
2023-10-29T14:18:12.662Z,5.07
2023-10-29T14:20:39.686Z,3.60
2023-10-29T14:23:06.706Z,6.93
2023-10-29T14:25:33.752Z,5.45
2023-10-29T14:28:02.313Z,5.55
2023-10-29T14:30:29.758Z,5.25
2023-10-29T14:32:56.947Z,4.53
2023-10-29T14:35:24.138Z,3.92
2023-10-29T14:37:54.077Z,4.05
2023-10-29T14:40:21.942Z,3.17
2023-10-29T14:42:49.271Z,4.97
2023-10-29T14:45:19.296Z,4.00
2023-10-29T14:47:46.799Z,4.75
2023-10-29T14:50:14.034Z,6.53
2023-10-29T14:52:41.436Z,5.00
2023-10-29T14:55:09.889Z,5.82
2023-10-29T14:57:38.449Z,5.70
2023-10-29T15:00:11.750Z,6.60
2023-10-29T15:02:38.861Z,3.38
2023-10-29T15:05:06.168Z,4.72
2023-10-29T15:07:33.177Z,9.00
2023-10-29T15:10:01.332Z,4.10
2023-10-29T15:12:28.317Z,3.33
2023-10-29T15:14:55.615Z,4.80
2023-10-29T15:17:22.829Z,4.60
2023-10-29T15:19:54.887Z,6.30
2023-10-29T15:22:21.942Z,5.67
2023-10-29T15:24:49.206Z,4.95
2023-10-29T15:27:16.709Z,6.10
2023-10-29T15:29:44.205Z,6.05
2023-10-29T15:32:11.123Z,4.30
2023-10-29T15:34:38.209Z,4.47
2023-10-29T15:37:05.741Z,4.53
2023-10-29T15:39:33.266Z,4.72
2023-10-29T15:42:00.935Z,4.35
2023-10-29T15:44:28.406Z,5.80
2023-10-29T15:46:55.712Z,4.30
2023-10-29T15:49:24.604Z,5.35
2023-10-29T15:51:52.268Z,4.97
2023-10-29T15:54:21.871Z,5.45
2023-10-29T15:56:48.841Z,5.80
2023-10-29T15:59:20.739Z,5.70
2023-10-29T16:01:48.525Z,7.40
2023-10-29T16:04:17.430Z,6.22
2023-10-29T16:06:45.133Z,6.40
2023-10-29T16:09:13.287Z,5.32
2023-10-29T16:11:40.577Z,5.13
2023-10-29T16:14:09.144Z,4.90
2023-10-29T16:16:36.919Z,5.95
2023-10-29T16:19:04.932Z,6.60
2023-10-29T16:21:32.711Z,7.70
2023-10-29T16:24:00.416Z,5.27
2023-10-29T16:26:28.390Z,6.13
2023-10-29T16:28:56.177Z,5.03
2023-10-29T16:31:23.670Z,5.75
2023-10-29T16:33:51.366Z,5.35
2023-10-29T16:36:19.520Z,5.97
2023-10-29T16:38:47.389Z,6.50
2023-10-29T16:41:18.258Z,5.85
2023-10-29T16:43:50.183Z,4.85
2023-10-29T16:46:18.624Z,5.03
2023-10-29T16:48:47.032Z,5.77
2023-10-29T16:51:15.075Z,6.25
2023-10-29T16:53:42.882Z,7.82
2023-10-29T16:56:12.803Z,5.45
2023-10-29T16:58:44.317Z,7.68
2023-10-29T17:01:15.715Z,6.50
2023-10-29T17:03:44.010Z,5.35
2023-10-29T17:06:11.590Z,7.97
2023-10-29T17:08:39.732Z,7.43
2023-10-29T17:11:08.256Z,10.20
2023-10-29T17:13:36.496Z,10.70
2023-10-29T17:16:05.848Z,12.45
2023-10-29T17:18:34.322Z,10.40
2023-10-29T17:21:03.990Z,10.25
2023-10-29T17:23:31.715Z,7.75
2023-10-29T17:25:59.178Z,10.47
2023-10-29T17:28:28.026Z,6.82
2023-10-29T17:30:55.874Z,7.30
2023-10-29T17:33:25.178Z,4.90
2023-10-29T17:35:54.388Z,6.78
2023-10-29T17:38:21.663Z,4.00
2023-10-29T17:40:49.632Z,5.72
2023-10-29T17:43:20.387Z,5.05
2023-10-29T17:45:50.741Z,4.25
2023-10-29T17:48:21.029Z,4.22
2023-10-29T17:50:59.015Z,4.37
2023-10-29T17:53:27.484Z,3.17
2023-10-29T17:55:55.450Z,5.60
2023-10-29T17:58:23.989Z,3.90
2023-10-29T18:00:51.607Z,4.47
2023-10-29T18:03:19.713Z,5.83
2023-10-29T18:05:47.908Z,5.07
2023-10-29T18:08:15.407Z,4.32
2023-10-29T18:10:43.418Z,6.05
2023-10-29T18:13:11.102Z,3.80
2023-10-29T18:15:38.147Z,6.30
2023-10-29T18:18:05.755Z,4.40
2023-10-29T18:20:35.662Z,4.18
2023-10-29T18:23:05.668Z,4.25
2023-10-29T18:25:33.503Z,4.65
2023-10-29T18:28:01.032Z,4.37
2023-10-29T18:30:28.950Z,5.55
2023-10-29T18:32:59.955Z,3.83
2023-10-29T18:35:29.944Z,4.03
2023-10-29T18:37:57.413Z,4.75
2023-10-29T18:40:26.575Z,7.63
2023-10-29T18:42:54.488Z,4.70
2023-10-29T18:45:21.959Z,4.57
2023-10-29T18:47:51.545Z,4.88
2023-10-29T18:50:21.082Z,4.32
2023-10-29T18:52:49.180Z,4.97
2023-10-29T18:55:17.603Z,6.50
2023-10-29T18:57:46.847Z,5.05
2023-10-29T19:00:15.084Z,4.55
2023-10-29T19:02:43.115Z,7.05
2023-10-29T19:05:13.439Z,5.67
2023-10-29T19:07:41.192Z,5.55
2023-10-29T19:10:09.811Z,5.18
2023-10-29T19:12:37.950Z,6.65
2023-10-29T19:15:06.226Z,5.78
2023-10-29T19:17:36.287Z,6.27
2023-10-29T19:20:08.429Z,5.55
2023-10-29T19:22:36.359Z,5.28
2023-10-29T19:25:04.373Z,5.13
2023-10-29T19:27:32.710Z,4.57
2023-10-29T19:30:01.558Z,5.50
2023-10-29T19:32:29.671Z,6.40
2023-10-29T19:34:58.701Z,4.80
2023-10-29T19:37:28.316Z,4.93
2023-10-29T19:39:59.694Z,5.38
2023-10-29T19:42:28.603Z,4.53
2023-10-29T19:44:59.752Z,5.20
2023-10-29T19:47:30.339Z,6.18
2023-10-29T19:49:58.648Z,4.88
2023-10-29T19:52:27.204Z,8.05
2023-10-29T19:54:57.738Z,4.47
2023-10-29T19:57:26.023Z,4.60
2023-10-29T19:59:56.193Z,5.03
2023-10-29T20:02:28.484Z,5.55
2023-10-29T20:04:57.978Z,5.20
2023-10-29T20:07:25.741Z,5.17
2023-10-29T20:09:54.686Z,4.05
2023-10-29T20:12:23.601Z,5.25
2023-10-29T20:14:55.226Z,4.72
2023-10-29T20:17:23.523Z,6.25
2023-10-29T20:19:52.600Z,5.83
2023-10-29T20:22:23.644Z,5.10
2023-10-29T20:24:58.171Z,6.75
2023-10-29T20:27:26.255Z,5.75
2023-10-29T20:29:56.337Z,5.88
2023-10-29T20:32:24.110Z,5.80
2023-10-29T20:34:52.348Z,5.47
2023-10-29T20:37:19.950Z,7.20
2023-10-29T20:39:47.348Z,5.55
2023-10-29T20:42:15.097Z,6.43
2023-10-29T20:44:43.315Z,5.40
2023-10-29T20:47:11.179Z,5.90
2023-10-29T20:49:38.398Z,5.40
2023-10-29T20:52:07.653Z,5.57
2023-10-29T20:54:35.859Z,4.88
2023-10-29T20:57:05.237Z,6.50
2023-10-29T20:59:32.895Z,7.63
2023-10-29T21:02:00.236Z,6.35
2023-10-29T21:04:27.490Z,5.80
2023-10-29T21:06:54.556Z,9.13
2023-10-29T21:09:21.590Z,5.30
2023-10-29T21:11:48.459Z,5.07
2023-10-29T21:14:15.488Z,3.30
2023-10-29T21:16:42.498Z,5.43
2023-10-29T21:19:09.714Z,5.05
2023-10-29T21:21:37.210Z,5.23
2023-10-29T21:24:04.973Z,6.63
2023-10-29T21:26:32.053Z,3.60
2023-10-29T21:28:59.005Z,5.45
2023-10-29T21:31:25.857Z,3.70
2023-10-29T21:33:52.635Z,4.70
2023-10-29T21:36:19.631Z,5.65
2023-10-29T21:38:47.040Z,4.40
2023-10-29T21:41:15.412Z,7.00
2023-10-29T21:43:42.532Z,3.38
2023-10-29T21:46:09.933Z,3.90
2023-10-29T21:48:36.932Z,4.78
2023-10-29T21:51:06.371Z,4.32
2023-10-29T21:53:33.447Z,4.15
2023-10-29T21:56:10.053Z,4.43
2023-10-29T21:58:36.813Z,5.53
2023-10-29T22:01:04.265Z,4.32
2023-10-29T22:03:31.349Z,3.92
2023-10-29T22:05:58.734Z,4.07
2023-10-29T22:08:26.245Z,5.95
2023-10-29T22:10:58.339Z,3.17
2023-10-29T22:13:26.241Z,4.95
2023-10-29T22:15:53.527Z,4.32
2023-10-29T22:18:20.479Z,8.98
2023-10-29T22:20:47.677Z,4.95
2023-10-29T22:23:14.588Z,5.73
2023-10-29T22:25:41.344Z,3.70
2023-10-29T22:28:08.502Z,4.68
2023-10-29T22:30:36.296Z,3.10
2023-10-29T22:33:03.214Z,6.72
2023-10-29T22:35:30.034Z,3.70
2023-10-29T22:37:56.758Z,5.70
2023-10-29T22:40:23.421Z,3.53
2023-10-29T22:42:50.126Z,3.13
2023-10-29T22:45:16.826Z,4.30
2023-10-29T22:47:43.612Z,3.93
2023-10-29T22:50:10.381Z,4.75
2023-10-29T22:52:37.069Z,3.17
2023-10-29T22:55:03.927Z,4.00
2023-10-29T22:57:30.705Z,3.47
2023-10-29T22:59:57.432Z,4.60
2023-10-29T23:02:26.547Z,4.15
2023-10-29T23:04:53.732Z,5.53
2023-10-29T23:07:20.421Z,5.47
2023-10-29T23:09:47.362Z,3.55
2023-10-29T23:12:14.205Z,3.80
2023-10-29T23:14:40.954Z,6.78
2023-10-29T23:17:08.340Z,4.55
2023-10-29T23:19:35.359Z,5.63
2023-10-29T23:22:02.093Z,3.75
2023-10-29T23:24:28.845Z,4.70
2023-10-29T23:26:55.624Z,6.05
2023-10-29T23:29:22.375Z,3.42
2023-10-29T23:31:49.157Z,3.65
2023-10-29T23:34:15.856Z,3.55
2023-10-29T23:36:42.605Z,3.67
2023-10-29T23:39:09.388Z,3.95
2023-10-29T23:41:36.112Z,3.95
2023-10-29T23:44:03.957Z,4.05
2023-10-29T23:46:30.798Z,4.65
2023-10-29T23:48:57.750Z,4.13
2023-10-29T23:51:24.540Z,3.47
2023-10-29T23:53:51.304Z,3.90
2023-10-29T23:56:17.977Z,10.27
2023-10-29T23:58:44.735Z,4.80
